sensor_id;sensor_type;location;lat;lon;timestamp;P1;durP1;ratioP1;P2;durP2;ratioP2
64738;SDS011;51175;51.186;0.276;2022-09-09T00:00:17;9.60;;;5.35;;
64738;SDS011;51175;51.186;0.276;2022-09-09T00:00:53;5.88;;;3.30;;
64738;SDS011;51175;51.186;0.276;2022-09-09T00:01:36;8.32;;;3.60;;
64738;SDS011;51175;51.186;0.276;2022-09-09T00:03:40;12.68;;;4.13;;
64738;SDS011;51175;51.186;0.276;2022-09-09T00:04:33;10.60;;;4.22;;
64738;SDS011;51175;51.186;0.276;2022-09-09T00:05:20;6.82;;;3.05;;
64738;SDS011;51175;51.186;0.276;2022-09-09T00:06:03;12.52;;;3.55;;
64738;SDS011;51175;51.186;0.276;2022-09-09T00:07:44;11.75;;;4.18;;
64738;SDS011;51175;51.186;0.276;2022-09-09T00:08:19;8.68;;;4.22;;
64738;SDS011;51175;51.186;0.276;2022-09-09T00:09:31;8.68;;;3.10;;
64738;SDS011;51175;51.186;0.276;2022-09-09T00:11:01;9.43;;;4.05;;
64738;SDS011;51175;51.186;0.276;2022-09-09T00:12:18;6.75;;;3.42;;
64738;SDS011;51175;51.186;0.276;2022-09-09T00:13:53;8.93;;;3.90;;
64738;SDS011;51175;51.186;0.276;2022-09-09T00:14:42;6.28;;;2.33;;
64738;SDS011;51175;51.186;0.276;2022-09-09T00:15:20;7.53;;;3.35;;
64738;SDS011;51175;51.186;0.276;2022-09-09T00:16:00;9.13;;;4.18;;
64738;SDS011;51175;51.186;0.276;2022-09-09T00:16:47;6.10;;;2.67;;
64738;SDS011;51175;51.186;0.276;2022-09-09T00:17:45;9.02;;;3.00;;
64738;SDS011;51175;51.186;0.276;2022-09-09T00:19:38;8.10;;;3.30;;
64738;SDS011;51175;51.186;0.276;2022-09-09T00:21:06;11.73;;;3.80;;
64738;SDS011;51175;51.186;0.276;2022-09-09T00:21:47;8.23;;;3.22;;
64738;SDS011;51175;51.186;0.276;2022-09-09T00:22:29;5.97;;;2.50;;
64738;SDS011;51175;51.186;0.276;2022-09-09T00:23:08;8.98;;;2.92;;
64738;SDS011;51175;51.186;0.276;2022-09-09T00:24:45;8.98;;;3.38;;
64738;SDS011;51175;51.186;0.276;2022-09-09T00:25:22;6.38;;;3.28;;
64738;SDS011;51175;51.186;0.276;2022-09-09T00:26:02;8.40;;;2.80;;
64738;SDS011;51175;51.186;0.276;2022-09-09T00:27:59;7.40;;;2.95;;
64738;SDS011;51175;51.186;0.276;2022-09-09T00:28:30;9.73;;;3.85;;
64738;SDS011;51175;51.186;0.276;2022-09-09T00:29:45;9.40;;;2.67;;
64738;SDS011;51175;51.186;0.276;2022-09-09T00:30:24;5.63;;;2.78;;
64738;SDS011;51175;51.186;0.276;2022-09-09T00:30:56;9.50;;;3.13;;
64738;SDS011;51175;51.186;0.276;2022-09-09T00:31:34;6.03;;;2.63;;
64738;SDS011;51175;51.186;0.276;2022-09-09T00:32:14;7.75;;;2.85;;
64738;SDS011;51175;51.186;0.276;2022-09-09T00:32:47;8.07;;;2.95;;
64738;SDS011;51175;51.186;0.276;2022-09-09T00:33:27;7.75;;;3.20;;
64738;SDS011;51175;51.186;0.276;2022-09-09T00:34:14;8.70;;;3.28;;
64738;SDS011;51175;51.186;0.276;2022-09-09T00:35:49;6.50;;;2.80;;
64738;SDS011;51175;51.186;0.276;2022-09-09T00:36:23;7.05;;;2.72;;
64738;SDS011;51175;51.186;0.276;2022-09-09T00:36:56;10.52;;;3.65;;
64738;SDS011;51175;51.186;0.276;2022-09-09T00:37:27;6.50;;;3.15;;
64738;SDS011;51175;51.186;0.276;2022-09-09T00:38:04;7.78;;;3.17;;
64738;SDS011;51175;51.186;0.276;2022-09-09T00:39:37;8.52;;;3.05;;
64738;SDS011;51175;51.186;0.276;2022-09-09T00:40:17;6.03;;;2.75;;
64738;SDS011;51175;51.186;0.276;2022-09-09T00:40:58;8.75;;;3.15;;
64738;SDS011;51175;51.186;0.276;2022-09-09T00:43:07;6.90;;;2.53;;
64738;SDS011;51175;51.186;0.276;2022-09-09T00:43:53;11.65;;;2.83;;
64738;SDS011;51175;51.186;0.276;2022-09-09T00:44:35;6.68;;;2.65;;
64738;SDS011;51175;51.186;0.276;2022-09-09T00:47:52;7.35;;;3.08;;
64738;SDS011;51175;51.186;0.276;2022-09-09T00:48:26;6.60;;;2.80;;
64738;SDS011;51175;51.186;0.276;2022-09-09T00:49:22;6.93;;;3.05;;
64738;SDS011;51175;51.186;0.276;2022-09-09T00:51:15;5.13;;;2.38;;
64738;SDS011;51175;51.186;0.276;2022-09-09T00:55:28;5.65;;;2.38;;
64738;SDS011;51175;51.186;0.276;2022-09-09T00:56:14;6.72;;;2.88;;
64738;SDS011;51175;51.186;0.276;2022-09-09T00:57:31;7.07;;;2.92;;
64738;SDS011;51175;51.186;0.276;2022-09-09T00:58:06;5.90;;;2.40;;
64738;SDS011;51175;51.186;0.276;2022-09-09T00:58:38;8.23;;;2.45;;
64738;SDS011;51175;51.186;0.276;2022-09-09T00:59:24;4.72;;;2.10;;
64738;SDS011;51175;51.186;0.276;2022-09-09T01:01:03;5.82;;;2.60;;
64738;SDS011;51175;51.186;0.276;2022-09-09T01:01:38;6.35;;;2.08;;
64738;SDS011;51175;51.186;0.276;2022-09-09T01:02:18;6.15;;;2.40;;
64738;SDS011;51175;51.186;0.276;2022-09-09T01:03:54;6.60;;;2.30;;
64738;SDS011;51175;51.186;0.276;2022-09-09T01:04:33;5.03;;;2.20;;
64738;SDS011;51175;51.186;0.276;2022-09-09T01:05:15;7.43;;;2.85;;
64738;SDS011;51175;51.186;0.276;2022-09-09T01:06:36;5.55;;;2.17;;
64738;SDS011;51175;51.186;0.276;2022-09-09T01:07:17;7.60;;;2.25;;
64738;SDS011;51175;51.186;0.276;2022-09-09T01:07:49;6.55;;;3.45;;
64738;SDS011;51175;51.186;0.276;2022-09-09T01:10:11;4.68;;;2.15;;
64738;SDS011;51175;51.186;0.276;2022-09-09T01:10:53;5.82;;;2.33;;
64738;SDS011;51175;51.186;0.276;2022-09-09T01:11:36;7.80;;;2.80;;
64738;SDS011;51175;51.186;0.276;2022-09-09T01:12:17;4.38;;;2.22;;
64738;SDS011;51175;51.186;0.276;2022-09-09T01:12:55;6.93;;;2.53;;
64738;SDS011;51175;51.186;0.276;2022-09-09T01:13:32;3.72;;;1.75;;
64738;SDS011;51175;51.186;0.276;2022-09-09T01:14:11;4.25;;;2.35;;
64738;SDS011;51175;51.186;0.276;2022-09-09T01:14:56;7.80;;;2.78;;
64738;SDS011;51175;51.186;0.276;2022-09-09T01:15:33;4.20;;;2.15;;
64738;SDS011;51175;51.186;0.276;2022-09-09T01:16:04;4.90;;;2.45;;
64738;SDS011;51175;51.186;0.276;2022-09-09T01:16:41;6.80;;;2.00;;
64738;SDS011;51175;51.186;0.276;2022-09-09T01:18:03;6.38;;;2.13;;
64738;SDS011;51175;51.186;0.276;2022-09-09T01:18:37;5.47;;;2.22;;
64738;SDS011;51175;51.186;0.276;2022-09-09T01:19:16;5.97;;;1.90;;
64738;SDS011;51175;51.186;0.276;2022-09-09T01:20:00;4.07;;;1.75;;
64738;SDS011;51175;51.186;0.276;2022-09-09T01:24:20;6.60;;;2.00;;
64738;SDS011;51175;51.186;0.276;2022-09-09T01:26:52;7.20;;;2.63;;
64738;SDS011;51175;51.186;0.276;2022-09-09T01:27:24;6.32;;;2.30;;
64738;SDS011;51175;51.186;0.276;2022-09-09T01:27:56;4.38;;;2.15;;
64738;SDS011;51175;51.186;0.276;2022-09-09T01:28:30;4.95;;;1.95;;
64738;SDS011;51175;51.186;0.276;2022-09-09T01:29:02;7.75;;;2.47;;
64738;SDS011;51175;51.186;0.276;2022-09-09T01:29:38;5.43;;;1.90;;
64738;SDS011;51175;51.186;0.276;2022-09-09T01:30:13;6.82;;;2.40;;
64738;SDS011;51175;51.186;0.276;2022-09-09T01:30:45;6.38;;;2.97;;
64738;SDS011;51175;51.186;0.276;2022-09-09T01:31:20;6.50;;;2.65;;
64738;SDS011;51175;51.186;0.276;2022-09-09T01:33:16;6.28;;;2.75;;
64738;SDS011;51175;51.186;0.276;2022-09-09T01:33:48;4.68;;;1.70;;
64738;SDS011;51175;51.186;0.276;2022-09-09T01:34:19;6.00;;;2.15;;
64738;SDS011;51175;51.186;0.276;2022-09-09T01:34:50;7.82;;;2.30;;
64738;SDS011;51175;51.186;0.276;2022-09-09T01:37:09;6.20;;;2.58;;
64738;SDS011;51175;51.186;0.276;2022-09-09T01:37:42;7.72;;;2.25;;
64738;SDS011;51175;51.186;0.276;2022-09-09T01:38:12;7.47;;;1.98;;
64738;SDS011;51175;51.186;0.276;2022-09-09T01:38:44;6.80;;;2.15;;
64738;SDS011;51175;51.186;0.276;2022-09-09T01:39:14;7.10;;;2.28;;
64738;SDS011;51175;51.186;0.276;2022-09-09T01:39:45;5.40;;;2.25;;
64738;SDS011;51175;51.186;0.276;2022-09-09T01:40:15;6.82;;;2.33;;
64738;SDS011;51175;51.186;0.276;2022-09-09T01:40:46;5.13;;;1.90;;
64738;SDS011;51175;51.186;0.276;2022-09-09T01:41:17;7.28;;;2.03;;
64738;SDS011;51175;51.186;0.276;2022-09-09T01:41:47;5.50;;;2.35;;
64738;SDS011;51175;51.186;0.276;2022-09-09T01:42:18;7.18;;;2.42;;
64738;SDS011;51175;51.186;0.276;2022-09-09T01:42:49;6.97;;;2.97;;
64738;SDS011;51175;51.186;0.276;2022-09-09T01:43:20;6.25;;;2.50;;
64738;SDS011;51175;51.186;0.276;2022-09-09T01:43:52;6.57;;;1.90;;
64738;SDS011;51175;51.186;0.276;2022-09-09T01:44:24;4.63;;;2.55;;
64738;SDS011;51175;51.186;0.276;2022-09-09T01:44:56;5.35;;;2.13;;
64738;SDS011;51175;51.186;0.276;2022-09-09T01:45:27;4.45;;;2.03;;
64738;SDS011;51175;51.186;0.276;2022-09-09T01:45:59;7.93;;;2.92;;
64738;SDS011;51175;51.186;0.276;2022-09-09T01:46:31;7.15;;;2.30;;
64738;SDS011;51175;51.186;0.276;2022-09-09T01:47:01;5.50;;;2.10;;
64738;SDS011;51175;51.186;0.276;2022-09-09T01:47:32;6.68;;;2.22;;
64738;SDS011;51175;51.186;0.276;2022-09-09T01:48:02;5.25;;;1.98;;
64738;SDS011;51175;51.186;0.276;2022-09-09T01:48:33;5.47;;;2.00;;
64738;SDS011;51175;51.186;0.276;2022-09-09T01:49:05;4.55;;;1.75;;
64738;SDS011;51175;51.186;0.276;2022-09-09T01:49:37;7.80;;;2.40;;
64738;SDS011;51175;51.186;0.276;2022-09-09T01:50:08;6.85;;;2.40;;
64738;SDS011;51175;51.186;0.276;2022-09-09T01:50:43;6.15;;;2.97;;
64738;SDS011;51175;51.186;0.276;2022-09-09T01:51:13;6.47;;;2.45;;
64738;SDS011;51175;51.186;0.276;2022-09-09T01:51:43;5.45;;;1.75;;
64738;SDS011;51175;51.186;0.276;2022-09-09T01:52:19;4.18;;;1.58;;
64738;SDS011;51175;51.186;0.276;2022-09-09T01:52:50;8.00;;;2.15;;
64738;SDS011;51175;51.186;0.276;2022-09-09T01:53:25;5.80;;;2.00;;
64738;SDS011;51175;51.186;0.276;2022-09-09T01:53:55;4.85;;;1.77;;
64738;SDS011;51175;51.186;0.276;2022-09-09T01:54:26;6.15;;;1.98;;
64738;SDS011;51175;51.186;0.276;2022-09-09T01:54:59;8.52;;;2.83;;
64738;SDS011;51175;51.186;0.276;2022-09-09T01:55:31;7.05;;;2.45;;
64738;SDS011;51175;51.186;0.276;2022-09-09T01:57:19;5.55;;;2.28;;
64738;SDS011;51175;51.186;0.276;2022-09-09T01:57:58;6.57;;;2.35;;
64738;SDS011;51175;51.186;0.276;2022-09-09T02:00:41;6.22;;;2.10;;
64738;SDS011;51175;51.186;0.276;2022-09-09T02:01:34;4.82;;;1.98;;
64738;SDS011;51175;51.186;0.276;2022-09-09T02:02:18;9.15;;;2.45;;
64738;SDS011;51175;51.186;0.276;2022-09-09T02:03:07;8.20;;;2.38;;
64738;SDS011;51175;51.186;0.276;2022-09-09T02:03:57;5.32;;;1.90;;
64738;SDS011;51175;51.186;0.276;2022-09-09T02:06:46;5.30;;;1.83;;
64738;SDS011;51175;51.186;0.276;2022-09-09T02:07:31;5.65;;;2.10;;
64738;SDS011;51175;51.186;0.276;2022-09-09T02:08:11;4.60;;;2.15;;
64738;SDS011;51175;51.186;0.276;2022-09-09T02:08:59;6.38;;;2.17;;
64738;SDS011;51175;51.186;0.276;2022-09-09T02:09:33;5.10;;;1.63;;
64738;SDS011;51175;51.186;0.276;2022-09-09T02:10:12;5.18;;;2.08;;
64738;SDS011;51175;51.186;0.276;2022-09-09T02:10:50;7.72;;;2.00;;
64738;SDS011;51175;51.186;0.276;2022-09-09T02:11:27;3.50;;;1.30;;
64738;SDS011;51175;51.186;0.276;2022-09-09T02:12:08;6.60;;;2.00;;
64738;SDS011;51175;51.186;0.276;2022-09-09T02:12:45;4.88;;;2.08;;
64738;SDS011;51175;51.186;0.276;2022-09-09T02:13:19;8.38;;;2.90;;
64738;SDS011;51175;51.186;0.276;2022-09-09T02:13:52;4.72;;;2.13;;
64738;SDS011;51175;51.186;0.276;2022-09-09T02:14:27;4.70;;;1.80;;
64738;SDS011;51175;51.186;0.276;2022-09-09T02:15:07;5.25;;;1.65;;
64738;SDS011;51175;51.186;0.276;2022-09-09T02:16:00;6.22;;;1.60;;
64738;SDS011;51175;51.186;0.276;2022-09-09T02:16:48;7.10;;;1.70;;
64738;SDS011;51175;51.186;0.276;2022-09-09T02:17:26;5.18;;;2.22;;
64738;SDS011;51175;51.186;0.276;2022-09-09T02:18:00;4.70;;;1.70;;
64738;SDS011;51175;51.186;0.276;2022-09-09T02:18:44;5.78;;;2.22;;
64738;SDS011;51175;51.186;0.276;2022-09-09T02:19:27;7.00;;;1.77;;
64738;SDS011;51175;51.186;0.276;2022-09-09T02:20:10;7.32;;;1.85;;
64738;SDS011;51175;51.186;0.276;2022-09-09T02:20:43;6.05;;;2.20;;
64738;SDS011;51175;51.186;0.276;2022-09-09T02:21:16;4.20;;;1.38;;
64738;SDS011;51175;51.186;0.276;2022-09-09T02:21:47;4.25;;;1.45;;
64738;SDS011;51175;51.186;0.276;2022-09-09T02:22:19;4.60;;;1.67;;
64738;SDS011;51175;51.186;0.276;2022-09-09T02:22:52;5.90;;;1.80;;
64738;SDS011;51175;51.186;0.276;2022-09-09T02:23:24;5.50;;;1.70;;
64738;SDS011;51175;51.186;0.276;2022-09-09T02:23:54;3.30;;;1.23;;
64738;SDS011;51175;51.186;0.276;2022-09-09T02:24:29;3.15;;;1.45;;
64738;SDS011;51175;51.186;0.276;2022-09-09T02:25:03;7.43;;;1.92;;
64738;SDS011;51175;51.186;0.276;2022-09-09T02:25:37;5.43;;;1.52;;
64738;SDS011;51175;51.186;0.276;2022-09-09T02:26:10;5.20;;;2.17;;
64738;SDS011;51175;51.186;0.276;2022-09-09T02:26:45;4.45;;;1.60;;
64738;SDS011;51175;51.186;0.276;2022-09-09T02:27:19;3.97;;;1.48;;
64738;SDS011;51175;51.186;0.276;2022-09-09T02:27:51;3.95;;;1.25;;
64738;SDS011;51175;51.186;0.276;2022-09-09T02:28:22;6.60;;;1.75;;
64738;SDS011;51175;51.186;0.276;2022-09-09T02:28:57;6.03;;;1.70;;
64738;SDS011;51175;51.186;0.276;2022-09-09T02:29:34;5.13;;;1.63;;
64738;SDS011;51175;51.186;0.276;2022-09-09T02:30:07;5.60;;;2.08;;
64738;SDS011;51175;51.186;0.276;2022-09-09T02:30:39;5.88;;;1.48;;
64738;SDS011;51175;51.186;0.276;2022-09-09T02:31:11;5.75;;;1.73;;
64738;SDS011;51175;51.186;0.276;2022-09-09T02:31:43;5.30;;;1.80;;
64738;SDS011;51175;51.186;0.276;2022-09-09T02:32:17;6.50;;;1.65;;
64738;SDS011;51175;51.186;0.276;2022-09-09T02:32:52;4.55;;;1.10;;
64738;SDS011;51175;51.186;0.276;2022-09-09T02:33:30;4.95;;;1.48;;
64738;SDS011;51175;51.186;0.276;2022-09-09T02:34:06;5.13;;;1.63;;
64738;SDS011;51175;51.186;0.276;2022-09-09T02:34:43;6.82;;;2.00;;
64738;SDS011;51175;51.186;0.276;2022-09-09T02:35:16;5.20;;;1.30;;
64738;SDS011;51175;51.186;0.276;2022-09-09T02:35:50;4.28;;;1.33;;
64738;SDS011;51175;51.186;0.276;2022-09-09T02:36:23;6.43;;;2.13;;
64738;SDS011;51175;51.186;0.276;2022-09-09T02:36:57;3.85;;;1.85;;
64738;SDS011;51175;51.186;0.276;2022-09-09T02:37:31;8.00;;;2.58;;
64738;SDS011;51175;51.186;0.276;2022-09-09T02:38:08;4.60;;;1.23;;
64738;SDS011;51175;51.186;0.276;2022-09-09T02:38:43;5.25;;;1.77;;
64738;SDS011;51175;51.186;0.276;2022-09-09T02:39:20;5.72;;;1.45;;
64738;SDS011;51175;51.186;0.276;2022-09-09T02:39:50;4.82;;;2.13;;
64738;SDS011;51175;51.186;0.276;2022-09-09T02:40:21;4.57;;;1.48;;
64738;SDS011;51175;51.186;0.276;2022-09-09T02:40:51;6.30;;;3.22;;
64738;SDS011;51175;51.186;0.276;2022-09-09T02:41:31;5.47;;;1.65;;
64738;SDS011;51175;51.186;0.276;2022-09-09T02:42:04;6.78;;;2.53;;
64738;SDS011;51175;51.186;0.276;2022-09-09T02:42:38;5.15;;;1.52;;
64738;SDS011;51175;51.186;0.276;2022-09-09T02:43:10;6.60;;;1.55;;
64738;SDS011;51175;51.186;0.276;2022-09-09T02:43:40;4.78;;;1.48;;
64738;SDS011;51175;51.186;0.276;2022-09-09T02:44:11;5.78;;;1.55;;
64738;SDS011;51175;51.186;0.276;2022-09-09T02:44:42;6.25;;;1.60;;
64738;SDS011;51175;51.186;0.276;2022-09-09T02:45:24;5.07;;;1.75;;
64738;SDS011;51175;51.186;0.276;2022-09-09T02:49:16;3.38;;;1.20;;
64738;SDS011;51175;51.186;0.276;2022-09-09T02:50:39;3.90;;;1.58;;
64738;SDS011;51175;51.186;0.276;2022-09-09T02:51:37;3.35;;;1.38;;
64738;SDS011;51175;51.186;0.276;2022-09-09T02:52:19;6.50;;;2.13;;
64738;SDS011;51175;51.186;0.276;2022-09-09T02:53:37;6.93;;;1.77;;
64738;SDS011;51175;51.186;0.276;2022-09-09T02:54:20;5.75;;;1.45;;
64738;SDS011;51175;51.186;0.276;2022-09-09T02:55:00;3.30;;;1.27;;
64738;SDS011;51175;51.186;0.276;2022-09-09T02:55:48;4.40;;;1.17;;
64738;SDS011;51175;51.186;0.276;2022-09-09T02:56:25;3.85;;;1.25;;
64738;SDS011;51175;51.186;0.276;2022-09-09T02:57:02;4.70;;;1.33;;
64738;SDS011;51175;51.186;0.276;2022-09-09T02:57:49;3.53;;;1.27;;
64738;SDS011;51175;51.186;0.276;2022-09-09T02:58:21;2.60;;;1.30;;
64738;SDS011;51175;51.186;0.276;2022-09-09T02:58:53;3.95;;;1.60;;
64738;SDS011;51175;51.186;0.276;2022-09-09T02:59:24;7.05;;;1.73;;
64738;SDS011;51175;51.186;0.276;2022-09-09T02:59:58;4.05;;;1.67;;
64738;SDS011;51175;51.186;0.276;2022-09-09T03:00:30;3.30;;;1.27;;
64738;SDS011;51175;51.186;0.276;2022-09-09T03:01:01;3.40;;;1.25;;
64738;SDS011;51175;51.186;0.276;2022-09-09T03:01:32;4.78;;;1.35;;
64738;SDS011;51175;51.186;0.276;2022-09-09T03:02:03;6.95;;;1.23;;
64738;SDS011;51175;51.186;0.276;2022-09-09T03:02:34;5.05;;;1.58;;
64738;SDS011;51175;51.186;0.276;2022-09-09T03:03:05;5.47;;;1.58;;
64738;SDS011;51175;51.186;0.276;2022-09-09T03:03:36;5.00;;;1.15;;
64738;SDS011;51175;51.186;0.276;2022-09-09T03:04:07;3.45;;;1.60;;
64738;SDS011;51175;51.186;0.276;2022-09-09T03:04:38;4.05;;;1.42;;
64738;SDS011;51175;51.186;0.276;2022-09-09T03:05:09;5.65;;;1.50;;
64738;SDS011;51175;51.186;0.276;2022-09-09T03:05:39;3.80;;;1.55;;
64738;SDS011;51175;51.186;0.276;2022-09-09T03:06:10;3.17;;;1.20;;
64738;SDS011;51175;51.186;0.276;2022-09-09T03:06:41;5.05;;;1.48;;
64738;SDS011;51175;51.186;0.276;2022-09-09T03:07:12;6.75;;;1.70;;
64738;SDS011;51175;51.186;0.276;2022-09-09T03:07:43;3.83;;;1.63;;
64738;SDS011;51175;51.186;0.276;2022-09-09T03:08:13;2.80;;;1.05;;
64738;SDS011;51175;51.186;0.276;2022-09-09T03:08:44;4.72;;;1.55;;
64738;SDS011;51175;51.186;0.276;2022-09-09T03:09:14;3.58;;;1.13;;
64738;SDS011;51175;51.186;0.276;2022-09-09T03:09:45;4.63;;;1.50;;
64738;SDS011;51175;51.186;0.276;2022-09-09T03:10:15;6.43;;;1.13;;
64738;SDS011;51175;51.186;0.276;2022-09-09T03:10:47;2.97;;;1.33;;
64738;SDS011;51175;51.186;0.276;2022-09-09T03:11:17;4.38;;;1.40;;
64738;SDS011;51175;51.186;0.276;2022-09-09T03:11:47;5.70;;;1.45;;
64738;SDS011;51175;51.186;0.276;2022-09-09T03:12:19;3.97;;;1.50;;
64738;SDS011;51175;51.186;0.276;2022-09-09T03:12:50;4.30;;;1.50;;
64738;SDS011;51175;51.186;0.276;2022-09-09T03:13:20;4.90;;;1.40;;
64738;SDS011;51175;51.186;0.276;2022-09-09T03:13:51;5.60;;;1.27;;
64738;SDS011;51175;51.186;0.276;2022-09-09T03:14:22;4.75;;;1.58;;
64738;SDS011;51175;51.186;0.276;2022-09-09T03:14:54;3.03;;;1.17;;
64738;SDS011;51175;51.186;0.276;2022-09-09T03:15:24;4.80;;;1.30;;
64738;SDS011;51175;51.186;0.276;2022-09-09T03:15:58;4.72;;;1.35;;
64738;SDS011;51175;51.186;0.276;2022-09-09T03:16:29;5.75;;;1.35;;
64738;SDS011;51175;51.186;0.276;2022-09-09T03:17:00;5.93;;;1.48;;
64738;SDS011;51175;51.186;0.276;2022-09-09T03:17:32;6.35;;;2.00;;
64738;SDS011;51175;51.186;0.276;2022-09-09T03:18:02;4.78;;;1.63;;
64738;SDS011;51175;51.186;0.276;2022-09-09T03:18:33;4.43;;;1.58;;
64738;SDS011;51175;51.186;0.276;2022-09-09T03:19:04;5.95;;;1.70;;
64738;SDS011;51175;51.186;0.276;2022-09-09T03:19:34;5.53;;;1.60;;
64738;SDS011;51175;51.186;0.276;2022-09-09T03:20:06;4.85;;;1.42;;
64738;SDS011;51175;51.186;0.276;2022-09-09T03:20:38;2.40;;;1.10;;
64738;SDS011;51175;51.186;0.276;2022-09-09T03:21:08;4.00;;;1.20;;
64738;SDS011;51175;51.186;0.276;2022-09-09T03:21:38;5.82;;;1.40;;
64738;SDS011;51175;51.186;0.276;2022-09-09T03:22:10;4.88;;;1.60;;
64738;SDS011;51175;51.186;0.276;2022-09-09T03:22:40;3.70;;;1.33;;
64738;SDS011;51175;51.186;0.276;2022-09-09T03:23:10;4.32;;;1.50;;
64738;SDS011;51175;51.186;0.276;2022-09-09T03:23:43;4.13;;;1.25;;
64738;SDS011;51175;51.186;0.276;2022-09-09T03:24:15;3.80;;;1.45;;
64738;SDS011;51175;51.186;0.276;2022-09-09T03:24:46;4.55;;;1.50;;
64738;SDS011;51175;51.186;0.276;2022-09-09T03:25:16;2.85;;;1.45;;
64738;SDS011;51175;51.186;0.276;2022-09-09T03:25:50;3.72;;;1.10;;
64738;SDS011;51175;51.186;0.276;2022-09-09T03:26:21;3.72;;;1.33;;
64738;SDS011;51175;51.186;0.276;2022-09-09T03:26:52;4.10;;;1.25;;
64738;SDS011;51175;51.186;0.276;2022-09-09T03:27:23;4.75;;;1.80;;
64738;SDS011;51175;51.186;0.276;2022-09-09T03:27:54;5.80;;;1.90;;
64738;SDS011;51175;51.186;0.276;2022-09-09T03:28:24;4.25;;;1.40;;
64738;SDS011;51175;51.186;0.276;2022-09-09T03:29:00;6.82;;;1.63;;
64738;SDS011;51175;51.186;0.276;2022-09-09T03:29:31;5.22;;;1.50;;
64738;SDS011;51175;51.186;0.276;2022-09-09T03:30:01;4.18;;;1.20;;
64738;SDS011;51175;51.186;0.276;2022-09-09T03:30:33;5.43;;;1.83;;
64738;SDS011;51175;51.186;0.276;2022-09-09T03:31:04;5.05;;;1.70;;
64738;SDS011;51175;51.186;0.276;2022-09-09T03:31:35;4.05;;;1.50;;
64738;SDS011;51175;51.186;0.276;2022-09-09T03:32:06;4.90;;;1.52;;
64738;SDS011;51175;51.186;0.276;2022-09-09T03:32:36;5.85;;;1.65;;
64738;SDS011;51175;51.186;0.276;2022-09-09T03:33:07;4.38;;;1.30;;
64738;SDS011;51175;51.186;0.276;2022-09-09T03:33:37;5.03;;;1.15;;
64738;SDS011;51175;51.186;0.276;2022-09-09T03:34:08;3.75;;;1.08;;
64738;SDS011;51175;51.186;0.276;2022-09-09T03:34:38;4.80;;;1.30;;
64738;SDS011;51175;51.186;0.276;2022-09-09T03:35:10;5.97;;;1.25;;
64738;SDS011;51175;51.186;0.276;2022-09-09T03:35:44;3.22;;;1.02;;
64738;SDS011;51175;51.186;0.276;2022-09-09T03:36:17;4.72;;;1.02;;
64738;SDS011;51175;51.186;0.276;2022-09-09T03:36:47;3.67;;;1.75;;
64738;SDS011;51175;51.186;0.276;2022-09-09T03:37:19;4.68;;;1.70;;
64738;SDS011;51175;51.186;0.276;2022-09-09T03:37:50;4.43;;;1.00;;
64738;SDS011;51175;51.186;0.276;2022-09-09T03:38:20;5.50;;;1.75;;
64738;SDS011;51175;51.186;0.276;2022-09-09T03:38:51;4.93;;;1.42;;
64738;SDS011;51175;51.186;0.276;2022-09-09T03:39:21;5.45;;;1.27;;
64738;SDS011;51175;51.186;0.276;2022-09-09T03:39:51;3.60;;;1.92;;
64738;SDS011;51175;51.186;0.276;2022-09-09T03:40:24;5.43;;;1.35;;
64738;SDS011;51175;51.186;0.276;2022-09-09T03:40:55;4.30;;;1.60;;
64738;SDS011;51175;51.186;0.276;2022-09-09T03:41:27;3.08;;;1.20;;
64738;SDS011;51175;51.186;0.276;2022-09-09T03:41:57;3.72;;;1.25;;
64738;SDS011;51175;51.186;0.276;2022-09-09T03:42:28;5.10;;;1.23;;
64738;SDS011;51175;51.186;0.276;2022-09-09T03:42:58;5.90;;;1.80;;
64738;SDS011;51175;51.186;0.276;2022-09-09T03:43:29;3.60;;;1.08;;
64738;SDS011;51175;51.186;0.276;2022-09-09T03:44:00;3.65;;;1.10;;
64738;SDS011;51175;51.186;0.276;2022-09-09T03:44:30;3.28;;;1.13;;
64738;SDS011;51175;51.186;0.276;2022-09-09T03:45:01;6.28;;;2.08;;
64738;SDS011;51175;51.186;0.276;2022-09-09T03:45:32;3.85;;;0.90;;
64738;SDS011;51175;51.186;0.276;2022-09-09T03:46:02;4.78;;;1.70;;
64738;SDS011;51175;51.186;0.276;2022-09-09T03:46:33;4.40;;;1.20;;
64738;SDS011;51175;51.186;0.276;2022-09-09T03:47:03;4.60;;;1.08;;
64738;SDS011;51175;51.186;0.276;2022-09-09T03:47:35;3.35;;;1.10;;
64738;SDS011;51175;51.186;0.276;2022-09-09T03:48:05;3.78;;;1.08;;
64738;SDS011;51175;51.186;0.276;2022-09-09T03:48:36;5.95;;;1.30;;
64738;SDS011;51175;51.186;0.276;2022-09-09T03:49:06;2.95;;;1.23;;
64738;SDS011;51175;51.186;0.276;2022-09-09T03:49:36;4.03;;;1.30;;
64738;SDS011;51175;51.186;0.276;2022-09-09T03:50:07;4.65;;;1.17;;
64738;SDS011;51175;51.186;0.276;2022-09-09T03:50:50;2.63;;;1.17;;
64738;SDS011;51175;51.186;0.276;2022-09-09T03:51:22;3.47;;;1.30;;
64738;SDS011;51175;51.186;0.276;2022-09-09T03:51:52;5.05;;;1.23;;
64738;SDS011;51175;51.186;0.276;2022-09-09T03:52:23;2.25;;;1.70;;
64738;SDS011;51175;51.186;0.276;2022-09-09T03:52:55;4.45;;;1.42;;
64738;SDS011;51175;51.186;0.276;2022-09-09T03:53:25;4.45;;;1.40;;
64738;SDS011;51175;51.186;0.276;2022-09-09T03:53:55;4.07;;;1.50;;
64738;SDS011;51175;51.186;0.276;2022-09-09T03:54:28;3.00;;;1.15;;
64738;SDS011;51175;51.186;0.276;2022-09-09T03:54:58;3.83;;;0.95;;
64738;SDS011;51175;51.186;0.276;2022-09-09T03:55:28;5.88;;;1.42;;
64738;SDS011;51175;51.186;0.276;2022-09-09T03:55:59;5.05;;;1.15;;
64738;SDS011;51175;51.186;0.276;2022-09-09T03:56:29;3.95;;;1.15;;
64738;SDS011;51175;51.186;0.276;2022-09-09T03:57:00;4.85;;;1.52;;
64738;SDS011;51175;51.186;0.276;2022-09-09T03:57:30;3.75;;;1.30;;
64738;SDS011;51175;51.186;0.276;2022-09-09T03:58:01;2.97;;;1.00;;
64738;SDS011;51175;51.186;0.276;2022-09-09T03:58:32;4.85;;;1.10;;
64738;SDS011;51175;51.186;0.276;2022-09-09T03:59:04;2.88;;;0.98;;
64738;SDS011;51175;51.186;0.276;2022-09-09T03:59:34;6.57;;;1.30;;
64738;SDS011;51175;51.186;0.276;2022-09-09T04:00:05;3.35;;;1.23;;
64738;SDS011;51175;51.186;0.276;2022-09-09T04:00:37;6.30;;;1.25;;
64738;SDS011;51175;51.186;0.276;2022-09-09T04:01:14;6.22;;;1.67;;
64738;SDS011;51175;51.186;0.276;2022-09-09T04:01:44;7.00;;;1.55;;
64738;SDS011;51175;51.186;0.276;2022-09-09T04:02:15;4.20;;;1.25;;
64738;SDS011;51175;51.186;0.276;2022-09-09T04:02:45;7.03;;;1.48;;
64738;SDS011;51175;51.186;0.276;2022-09-09T04:03:16;3.63;;;1.13;;
64738;SDS011;51175;51.186;0.276;2022-09-09T04:03:46;6.28;;;1.77;;
64738;SDS011;51175;51.186;0.276;2022-09-09T04:04:17;5.38;;;1.38;;
64738;SDS011;51175;51.186;0.276;2022-09-09T04:04:47;4.75;;;2.00;;
64738;SDS011;51175;51.186;0.276;2022-09-09T04:05:17;5.47;;;1.13;;
64738;SDS011;51175;51.186;0.276;2022-09-09T04:05:49;7.03;;;1.17;;
64738;SDS011;51175;51.186;0.276;2022-09-09T04:06:19;3.45;;;0.98;;
64738;SDS011;51175;51.186;0.276;2022-09-09T04:06:51;3.83;;;1.60;;
64738;SDS011;51175;51.186;0.276;2022-09-09T04:07:22;5.25;;;1.77;;
64738;SDS011;51175;51.186;0.276;2022-09-09T04:07:52;2.78;;;0.90;;
64738;SDS011;51175;51.186;0.276;2022-09-09T04:08:22;6.75;;;1.55;;
64738;SDS011;51175;51.186;0.276;2022-09-09T04:08:55;5.30;;;1.35;;
64738;SDS011;51175;51.186;0.276;2022-09-09T04:09:25;6.38;;;1.52;;
64738;SDS011;51175;51.186;0.276;2022-09-09T04:09:56;7.40;;;1.92;;
64738;SDS011;51175;51.186;0.276;2022-09-09T04:10:27;3.78;;;1.58;;
64738;SDS011;51175;51.186;0.276;2022-09-09T04:10:58;4.53;;;1.80;;
64738;SDS011;51175;51.186;0.276;2022-09-09T04:11:31;3.10;;;1.83;;
64738;SDS011;51175;51.186;0.276;2022-09-09T04:12:02;4.32;;;1.40;;
64738;SDS011;51175;51.186;0.276;2022-09-09T04:12:32;4.88;;;1.85;;
64738;SDS011;51175;51.186;0.276;2022-09-09T04:13:04;6.35;;;1.38;;
64738;SDS011;51175;51.186;0.276;2022-09-09T04:13:35;5.55;;;1.48;;
64738;SDS011;51175;51.186;0.276;2022-09-09T04:14:08;3.95;;;1.42;;